sensor_id;sensor_type;location;lat;lon;timestamp;pressure;altitude;pressure_sealevel;temperature;humidity
74524;BME280;63074;44.696;10.358;2024-02-23T00:01:59;98520.78;;;13.93;100.00
74524;BME280;63074;44.696;10.358;2024-02-23T00:04:26;98515.75;;;13.86;100.00
74524;BME280;63074;44.696;10.358;2024-02-23T00:06:52;98514.97;;;13.67;100.00
74524;BME280;63074;44.696;10.358;2024-02-23T00:09:18;98523.56;;;13.88;100.00
74524;BME280;63074;44.696;10.358;2024-02-23T00:11:44;98501.56;;;13.80;100.00
74524;BME280;63074;44.696;10.358;2024-02-23T00:14:11;98503.97;;;13.82;100.00
74524;BME280;63074;44.696;10.358;2024-02-23T00:16:41;98496.16;;;13.80;100.00
74524;BME280;63074;44.696;10.358;2024-02-23T00:19:11;98478.38;;;13.93;100.00
74524;BME280;63074;44.696;10.358;2024-02-23T00:21:37;98469.03;;;14.04;100.00
74524;BME280;63074;44.696;10.358;2024-02-23T00:24:08;98467.22;;;14.00;100.00
74524;BME280;63074;44.696;10.358;2024-02-23T00:26:34;98475.44;;;13.20;100.00
74524;BME280;63074;44.696;10.358;2024-02-23T00:29:02;98460.56;;;13.78;100.00
74524;BME280;63074;44.696;10.358;2024-02-23T00:31:28;98450.94;;;13.72;100.00
74524;BME280;63074;44.696;10.358;2024-02-23T00:33:54;98455.66;;;14.13;100.00
74524;BME280;63074;44.696;10.358;2024-02-23T00:36:20;98459.34;;;14.17;100.00
74524;BME280;63074;44.696;10.358;2024-02-23T00:38:47;98442.34;;;14.16;100.00
74524;BME280;63074;44.696;10.358;2024-02-23T00:41:13;98446.97;;;14.30;100.00
74524;BME280;63074;44.696;10.358;2024-02-23T00:43:40;98442.41;;;14.44;100.00
74524;BME280;63074;44.696;10.358;2024-02-23T00:46:06;98445.72;;;14.55;100.00
74524;BME280;63074;44.696;10.358;2024-02-23T00:48:33;98440.66;;;14.20;100.00
74524;BME280;63074;44.696;10.358;2024-02-23T00:50:59;98448.31;;;14.73;100.00
74524;BME280;63074;44.696;10.358;2024-02-23T00:53:26;98437.78;;;15.35;100.00
74524;BME280;63074;44.696;10.358;2024-02-23T00:55:52;98424.31;;;15.58;100.00
74524;BME280;63074;44.696;10.358;2024-02-23T00:58:18;98429.06;;;15.74;100.00
74524;BME280;63074;44.696;10.358;2024-02-23T01:00:44;98416.78;;;15.99;100.00
74524;BME280;63074;44.696;10.358;2024-02-23T01:03:10;98409.47;;;15.77;100.00
74524;BME280;63074;44.696;10.358;2024-02-23T01:05:37;98407.34;;;14.94;100.00
74524;BME280;63074;44.696;10.358;2024-02-23T01:08:04;98411.00;;;14.02;100.00
74524;BME280;63074;44.696;10.358;2024-02-23T01:10:30;98399.41;;;14.01;100.00
74524;BME280;63074;44.696;10.358;2024-02-23T01:12:57;98397.31;;;14.26;100.00
74524;BME280;63074;44.696;10.358;2024-02-23T01:15:23;98400.03;;;14.12;100.00
74524;BME280;63074;44.696;10.358;2024-02-23T01:17:49;98373.41;;;14.33;100.00
74524;BME280;63074;44.696;10.358;2024-02-23T01:20:15;98371.22;;;14.35;100.00
74524;BME280;63074;44.696;10.358;2024-02-23T01:22:43;98375.72;;;14.39;100.00
74524;BME280;63074;44.696;10.358;2024-02-23T01:25:09;98368.44;;;14.40;100.00
74524;BME280;63074;44.696;10.358;2024-02-23T01:27:35;98365.63;;;14.45;100.00
74524;BME280;63074;44.696;10.358;2024-02-23T01:30:02;98364.13;;;13.14;100.00
74524;BME280;63074;44.696;10.358;2024-02-23T01:32:28;98386.91;;;12.84;100.00
74524;BME280;63074;44.696;10.358;2024-02-23T01:34:54;98361.97;;;13.95;100.00
74524;BME280;63074;44.696;10.358;2024-02-23T01:37:20;98360.00;;;14.00;100.00
74524;BME280;63074;44.696;10.358;2024-02-23T01:39:46;98355.69;;;14.27;100.00
74524;BME280;63074;44.696;10.358;2024-02-23T01:42:13;98353.41;;;14.61;100.00
74524;BME280;63074;44.696;10.358;2024-02-23T01:44:39;98350.00;;;14.56;100.00
74524;BME280;63074;44.696;10.358;2024-02-23T01:47:05;98332.53;;;15.11;100.00
74524;BME280;63074;44.696;10.358;2024-02-23T01:49:33;98330.44;;;15.08;100.00
74524;BME280;63074;44.696;10.358;2024-02-23T01:52:00;98322.03;;;15.32;100.00
74524;BME280;63074;44.696;10.358;2024-02-23T01:54:28;98327.63;;;15.36;100.00
74524;BME280;63074;44.696;10.358;2024-02-23T01:56:56;98314.91;;;15.36;100.00
74524;BME280;63074;44.696;10.358;2024-02-23T01:59:24;98311.38;;;14.55;100.00
74524;BME280;63074;44.696;10.358;2024-02-23T02:01:51;98303.56;;;14.53;100.00
74524;BME280;63074;44.696;10.358;2024-02-23T02:04:17;98299.06;;;14.63;100.00
74524;BME280;63074;44.696;10.358;2024-02-23T02:06:46;98295.06;;;14.60;100.00
74524;BME280;63074;44.696;10.358;2024-02-23T02:09:12;98269.50;;;14.66;100.00
74524;BME280;63074;44.696;10.358;2024-02-23T02:11:48;98253.03;;;14.76;100.00
74524;BME280;63074;44.696;10.358;2024-02-23T02:14:15;98252.50;;;14.52;100.00
74524;BME280;63074;44.696;10.358;2024-02-23T02:16:42;98246.22;;;14.79;100.00
74524;BME280;63074;44.696;10.358;2024-02-23T02:19:12;98244.69;;;14.64;100.00
74524;BME280;63074;44.696;10.358;2024-02-23T02:21:39;98253.47;;;14.70;100.00
74524;BME280;63074;44.696;10.358;2024-02-23T02:24:06;98249.41;;;14.45;100.00
74524;BME280;63074;44.696;10.358;2024-02-23T02:26:34;98251.66;;;14.43;100.00
74524;BME280;63074;44.696;10.358;2024-02-23T02:29:01;98256.75;;;14.17;100.00
74524;BME280;63074;44.696;10.358;2024-02-23T02:31:27;98258.94;;;14.29;100.00
74524;BME280;63074;44.696;10.358;2024-02-23T02:33:53;98250.41;;;13.85;100.00
74524;BME280;63074;44.696;10.358;2024-02-23T02:36:19;98246.56;;;14.41;100.00
74524;BME280;63074;44.696;10.358;2024-02-23T02:38:45;98237.78;;;13.95;100.00
74524;BME280;63074;44.696;10.358;2024-02-23T02:41:12;98239.47;;;13.77;100.00
74524;BME280;63074;44.696;10.358;2024-02-23T02:43:38;98232.75;;;13.88;100.00
74524;BME280;63074;44.696;10.358;2024-02-23T02:46:04;98215.09;;;13.82;100.00
74524;BME280;63074;44.696;10.358;2024-02-23T02:48:30;98196.00;;;13.78;100.00
74524;BME280;63074;44.696;10.358;2024-02-23T02:50:56;98195.28;;;13.45;100.00
74524;BME280;63074;44.696;10.358;2024-02-23T02:53:23;98203.19;;;13.56;100.00
74524;BME280;63074;44.696;10.358;2024-02-23T02:55:49;98190.56;;;12.59;100.00
74524;BME280;63074;44.696;10.358;2024-02-23T02:58:15;98189.59;;;12.49;100.00
74524;BME280;63074;44.696;10.358;2024-02-23T03:00:42;98180.09;;;12.90;100.00
74524;BME280;63074;44.696;10.358;2024-02-23T03:03:08;98167.63;;;13.07;100.00
74524;BME280;63074;44.696;10.358;2024-02-23T03:05:34;98165.59;;;13.59;100.00
74524;BME280;63074;44.696;10.358;2024-02-23T03:08:00;98165.00;;;13.35;100.00
74524;BME280;63074;44.696;10.358;2024-02-23T03:10:27;98157.53;;;14.09;100.00
74524;BME280;63074;44.696;10.358;2024-02-23T03:12:53;98141.41;;;13.81;100.00
74524;BME280;63074;44.696;10.358;2024-02-23T03:15:19;98139.06;;;14.02;100.00
74524;BME280;63074;44.696;10.358;2024-02-23T03:17:45;98136.94;;;14.13;100.00
74524;BME280;63074;44.696;10.358;2024-02-23T03:20:11;98132.47;;;13.95;100.00
74524;BME280;63074;44.696;10.358;2024-02-23T03:22:38;98118.50;;;13.79;100.00
74524;BME280;63074;44.696;10.358;2024-02-23T03:25:05;98115.00;;;13.78;100.00
74524;BME280;63074;44.696;10.358;2024-02-23T03:27:36;98115.75;;;13.93;100.00
74524;BME280;63074;44.696;10.358;2024-02-23T03:30:04;98113.44;;;14.13;100.00
74524;BME280;63074;44.696;10.358;2024-02-23T03:32:31;98111.66;;;14.31;100.00
74524;BME280;63074;44.696;10.358;2024-02-23T03:35:06;98099.44;;;14.11;100.00
74524;BME280;63074;44.696;10.358;2024-02-23T03:37:34;98101.50;;;13.78;100.00
74524;BME280;63074;44.696;10.358;2024-02-23T03:40:00;98086.75;;;13.98;100.00
74524;BME280;63074;44.696;10.358;2024-02-23T03:42:26;98097.00;;;14.46;100.00
74524;BME280;63074;44.696;10.358;2024-02-23T03:44:53;98087.06;;;14.86;100.00
74524;BME280;63074;44.696;10.358;2024-02-23T03:47:19;98090.84;;;15.16;100.00
74524;BME280;63074;44.696;10.358;2024-02-23T03:49:46;98067.81;;;15.36;100.00
74524;BME280;63074;44.696;10.358;2024-02-23T03:52:13;98073.31;;;15.62;100.00
74524;BME280;63074;44.696;10.358;2024-02-23T03:54:39;98066.78;;;15.54;100.00
74524;BME280;63074;44.696;10.358;2024-02-23T03:57:05;98071.41;;;15.53;100.00
74524;BME280;63074;44.696;10.358;2024-02-23T03:59:31;98065.56;;;15.77;100.00
74524;BME280;63074;44.696;10.358;2024-02-23T04:01:57;98066.38;;;15.86;100.00
74524;BME280;63074;44.696;10.358;2024-02-23T04:04:24;98044.03;;;15.64;100.00
74524;BME280;63074;44.696;10.358;2024-02-23T04:06:50;98043.91;;;15.77;100.00
74524;BME280;63074;44.696;10.358;2024-02-23T04:09:16;98042.13;;;15.73;100.00
74524;BME280;63074;44.696;10.358;2024-02-23T04:11:42;98041.34;;;15.90;100.00
74524;BME280;63074;44.696;10.358;2024-02-23T04:14:08;98041.50;;;16.02;100.00
74524;BME280;63074;44.696;10.358;2024-02-23T04:16:34;98035.28;;;15.93;100.00
74524;BME280;63074;44.696;10.358;2024-02-23T04:19:01;98041.47;;;16.36;100.00
74524;BME280;63074;44.696;10.358;2024-02-23T04:21:27;98054.09;;;16.15;100.00
74524;BME280;63074;44.696;10.358;2024-02-23T04:23:53;98053.28;;;16.23;100.00
74524;BME280;63074;44.696;10.358;2024-02-23T04:26:19;98036.53;;;16.30;100.00
74524;BME280;63074;44.696;10.358;2024-02-23T04:28:46;98035.94;;;16.07;100.00
74524;BME280;63074;44.696;10.358;2024-02-23T04:31:12;98019.19;;;16.05;100.00
74524;BME280;63074;44.696;10.358;2024-02-23T04:33:38;98014.75;;;16.09;100.00
74524;BME280;63074;44.696;10.358;2024-02-23T04:36:05;97999.47;;;15.87;100.00
74524;BME280;63074;44.696;10.358;2024-02-23T04:38:32;97986.25;;;15.85;100.00
74524;BME280;63074;44.696;10.358;2024-02-23T04:41:03;98009.00;;;15.93;100.00
74524;BME280;63074;44.696;10.358;2024-02-23T04:43:30;98019.38;;;15.74;100.00
74524;BME280;63074;44.696;10.358;2024-02-23T04:45:56;98002.50;;;15.85;100.00
74524;BME280;63074;44.696;10.358;2024-02-23T04:48:22;97987.34;;;15.76;100.00
74524;BME280;63074;44.696;10.358;2024-02-23T04:50:48;97998.50;;;15.83;100.00
74524;BME280;63074;44.696;10.358;2024-02-23T04:53:14;97980.19;;;15.71;100.00
74524;BME280;63074;44.696;10.358;2024-02-23T04:55:41;97971.91;;;15.85;100.00
74524;BME280;63074;44.696;10.358;2024-02-23T04:58:07;97950.41;;;15.71;100.00
74524;BME280;63074;44.696;10.358;2024-02-23T05:00:34;97967.88;;;15.91;100.00
74524;BME280;63074;44.696;10.358;2024-02-23T05:03:00;97959.44;;;16.01;100.00
74524;BME280;63074;44.696;10.358;2024-02-23T05:05:32;97946.88;;;15.88;100.00
74524;BME280;63074;44.696;10.358;2024-02-23T05:07:58;97960.28;;;15.84;100.00
74524;BME280;63074;44.696;10.358;2024-02-23T05:10:25;97967.41;;;16.06;100.00
74524;BME280;63074;44.696;10.358;2024-02-23T05:12:51;97975.97;;;16.17;100.00
74524;BME280;63074;44.696;10.358;2024-02-23T05:15:18;97969.06;;;16.45;100.00
74524;BME280;63074;44.696;10.358;2024-02-23T05:17:44;97963.81;;;16.40;100.00
74524;BME280;63074;44.696;10.358;2024-02-23T05:20:11;97976.34;;;16.07;100.00
74524;BME280;63074;44.696;10.358;2024-02-23T05:22:38;97989.19;;;15.32;100.00
74524;BME280;63074;44.696;10.358;2024-02-23T05:25:04;97975.59;;;15.06;100.00
74524;BME280;63074;44.696;10.358;2024-02-23T05:27:33;97982.84;;;15.28;100.00
74524;BME280;63074;44.696;10.358;2024-02-23T05:29:59;97991.94;;;16.10;100.00
74524;BME280;63074;44.696;10.358;2024-02-23T05:32:26;97977.84;;;16.42;100.00
74524;BME280;63074;44.696;10.358;2024-02-23T05:34:52;97982.53;;;16.07;100.00
74524;BME280;63074;44.696;10.358;2024-02-23T05:37:20;97979.63;;;16.30;100.00
74524;BME280;63074;44.696;10.358;2024-02-23T05:39:46;97970.88;;;16.24;100.00
74524;BME280;63074;44.696;10.358;2024-02-23T05:42:15;97960.63;;;16.38;100.00
74524;BME280;63074;44.696;10.358;2024-02-23T05:44:44;97968.00;;;16.20;100.00
74524;BME280;63074;44.696;10.358;2024-02-23T05:47:11;97959.13;;;16.11;100.00
74524;BME280;63074;44.696;10.358;2024-02-23T05:49:39;97960.03;;;16.24;100.00
74524;BME280;63074;44.696;10.358;2024-02-23T05:52:06;97966.06;;;16.30;100.00
74524;BME280;63074;44.696;10.358;2024-02-23T05:54:32;97964.06;;;16.09;100.00
74524;BME280;63074;44.696;10.358;2024-02-23T05:56:58;97980.16;;;15.88;100.00
74524;BME280;63074;44.696;10.358;2024-02-23T05:59:25;97982.50;;;15.21;100.00
74524;BME280;63074;44.696;10.358;2024-02-23T06:01:51;97987.56;;;14.66;100.00
74524;BME280;63074;44.696;10.358;2024-02-23T06:04:23;97994.00;;;13.22;100.00
74524;BME280;63074;44.696;10.358;2024-02-23T06:06:49;98025.72;;;12.84;100.00
74524;BME280;63074;44.696;10.358;2024-02-23T06:09:15;98022.91;;;12.75;100.00
74524;BME280;63074;44.696;10.358;2024-02-23T06:11:41;97996.88;;;13.26;100.00
74524;BME280;63074;44.696;10.358;2024-02-23T06:14:08;98015.41;;;12.59;100.00
74524;BME280;63074;44.696;10.358;2024-02-23T06:16:34;98015.09;;;12.33;100.00
74524;BME280;63074;44.696;10.358;2024-02-23T06:19:00;98017.50;;;11.83;100.00
74524;BME280;63074;44.696;10.358;2024-02-23T06:21:27;98028.19;;;12.21;100.00
74524;BME280;63074;44.696;10.358;2024-02-23T06:23:53;98025.41;;;12.72;100.00
74524;BME280;63074;44.696;10.358;2024-02-23T06:26:19;98022.88;;;12.02;100.00
74524;BME280;63074;44.696;10.358;2024-02-23T06:28:46;98022.38;;;12.13;100.00
74524;BME280;63074;44.696;10.358;2024-02-23T06:31:12;98017.47;;;12.34;100.00
74524;BME280;63074;44.696;10.358;2024-02-23T06:33:38;98005.94;;;12.61;100.00
74524;BME280;63074;44.696;10.358;2024-02-23T06:36:05;98011.00;;;12.35;100.00
74524;BME280;63074;44.696;10.358;2024-02-23T06:38:31;98022.88;;;12.48;100.00
74524;BME280;63074;44.696;10.358;2024-02-23T06:40:57;98018.19;;;12.40;100.00
74524;BME280;63074;44.696;10.358;2024-02-23T06:43:23;98015.81;;;12.06;100.00
74524;BME280;63074;44.696;10.358;2024-02-23T06:45:50;97999.44;;;12.48;100.00
74524;BME280;63074;44.696;10.358;2024-02-23T06:48:17;98018.66;;;11.96;100.00
74524;BME280;63074;44.696;10.358;2024-02-23T06:50:43;98033.78;;;12.10;100.00
74524;BME280;63074;44.696;10.358;2024-02-23T06:53:09;98036.91;;;12.31;100.00
74524;BME280;63074;44.696;10.358;2024-02-23T06:55:35;98039.16;;;12.10;100.00
74524;BME280;63074;44.696;10.358;2024-02-23T06:58:02;98050.81;;;12.38;100.00
74524;BME280;63074;44.696;10.358;2024-02-23T07:00:30;98061.19;;;12.12;100.00
74524;BME280;63074;44.696;10.358;2024-02-23T07:02:56;98079.53;;;12.43;100.00
74524;BME280;63074;44.696;10.358;2024-02-23T07:05:25;98057.06;;;12.34;100.00
74524;BME280;63074;44.696;10.358;2024-02-23T07:07:51;98064.59;;;12.18;100.00
74524;BME280;63074;44.696;10.358;2024-02-23T07:10:18;98085.63;;;12.16;100.00
74524;BME280;63074;44.696;10.358;2024-02-23T07:12:44;98084.03;;;12.47;100.00
74524;BME280;63074;44.696;10.358;2024-02-23T07:15:10;98090.63;;;12.23;100.00
74524;BME280;63074;44.696;10.358;2024-02-23T07:17:36;98095.38;;;12.63;100.00
74524;BME280;63074;44.696;10.358;2024-02-23T07:20:03;98100.69;;;12.36;100.00
74524;BME280;63074;44.696;10.358;2024-02-23T07:22:32;98099.41;;;12.47;100.00
74524;BME280;63074;44.696;10.358;2024-02-23T07:24:58;98091.38;;;11.91;100.00
74524;BME280;63074;44.696;10.358;2024-02-23T07:27:25;98106.22;;;11.88;100.00
74524;BME280;63074;44.696;10.358;2024-02-23T07:29:51;98106.78;;;12.23;100.00
74524;BME280;63074;44.696;10.358;2024-02-23T07:32:17;98117.72;;;11.94;100.00
74524;BME280;63074;44.696;10.358;2024-02-23T07:34:43;98117.66;;;11.99;100.00
74524;BME280;63074;44.696;10.358;2024-02-23T07:37:09;98118.25;;;11.96;100.00
74524;BME280;63074;44.696;10.358;2024-02-23T07:39:36;98124.75;;;12.46;100.00
74524;BME280;63074;44.696;10.358;2024-02-23T07:42:02;98131.91;;;11.80;100.00
74524;BME280;63074;44.696;10.358;2024-02-23T07:44:29;98122.84;;;11.71;100.00
74524;BME280;63074;44.696;10.358;2024-02-23T07:46:55;98137.53;;;12.03;100.00
74524;BME280;63074;44.696;10.358;2024-02-23T07:49:21;98145.66;;;11.98;100.00
74524;BME280;63074;44.696;10.358;2024-02-23T07:51:50;98141.88;;;11.99;100.00
74524;BME280;63074;44.696;10.358;2024-02-23T07:54:18;98143.13;;;12.25;100.00
74524;BME280;63074;44.696;10.358;2024-02-23T07:56:44;98140.75;;;22.37;100.00
74524;BME280;63074;44.696;10.358;2024-02-23T07:59:10;98145.91;;;20.01;100.00
74524;BME280;63074;44.696;10.358;2024-02-23T08:01:37;98140.72;;;18.48;100.00
74524;BME280;63074;44.696;10.358;2024-02-23T08:04:03;98148.63;;;17.70;100.00
74524;BME280;63074;44.696;10.358;2024-02-23T08:06:29;98143.03;;;19.37;100.00
74524;BME280;63074;44.696;10.358;2024-02-23T08:08:55;98142.53;;;19.55;100.00
74524;BME280;63074;44.696;10.358;2024-02-23T08:11:22;98142.19;;;19.00;100.00
74524;BME280;63074;44.696;10.358;2024-02-23T08:13:48;98139.69;;;18.41;100.00
74524;BME280;63074;44.696;10.358;2024-02-23T08:16:16;98145.78;;;18.17;100.00
74524;BME280;63074;44.696;10.358;2024-02-23T08:18:43;98151.81;;;18.02;100.00
74524;BME280;63074;44.696;10.358;2024-02-23T08:21:10;98141.72;;;19.79;100.00
74524;BME280;63074;44.696;10.358;2024-02-23T08:23:37;98146.06;;;20.73;100.00
74524;BME280;63074;44.696;10.358;2024-02-23T08:26:03;98149.47;;;19.08;100.00
74524;BME280;63074;44.696;10.358;2024-02-23T08:28:29;98139.25;;;19.62;100.00
74524;BME280;63074;44.696;10.358;2024-02-23T08:30:55;98142.66;;;19.59;100.00
74524;BME280;63074;44.696;10.358;2024-02-23T08:33:21;98160.03;;;20.43;100.00
74524;BME280;63074;44.696;10.358;2024-02-23T08:35:48;98155.56;;;19.74;100.00
74524;BME280;63074;44.696;10.358;2024-02-23T08:38:17;98151.97;;;19.01;100.00
74524;BME280;63074;44.696;10.358;2024-02-23T08:40:44;98155.13;;;19.84;100.00
74524;BME280;63074;44.696;10.358;2024-02-23T08:43:11;98155.28;;;20.40;100.00
74524;BME280;63074;44.696;10.358;2024-02-23T08:45:37;98156.25;;;19.71;100.00
74524;BME280;63074;44.696;10.358;2024-02-23T08:48:04;98148.88;;;19.84;100.00
74524;BME280;63074;44.696;10.358;2024-02-23T08:50:30;98158.22;;;17.30;100.00
74524;BME280;63074;44.696;10.358;2024-02-23T08:52:56;98160.09;;;20.19;100.00
74524;BME280;63074;44.696;10.358;2024-02-23T08:55:22;98155.56;;;20.51;100.00
74524;BME280;63074;44.696;10.358;2024-02-23T08:57:49;98169.44;;;18.79;100.00
74524;BME280;63074;44.696;10.358;2024-02-23T09:00:16;98160.78;;;18.98;100.00
74524;BME280;63074;44.696;10.358;2024-02-23T09:02:42;98160.50;;;19.36;100.00
74524;BME280;63074;44.696;10.358;2024-02-23T09:05:09;98161.78;;;18.60;100.00
74524;BME280;63074;44.696;10.358;2024-02-23T09:07:35;98170.84;;;19.42;100.00
74524;BME280;63074;44.696;10.358;2024-02-23T09:38:40;98240.81;;;26.27;100.00
74524;BME280;63074;44.696;10.358;2024-02-23T09:41:15;98226.06;;;20.89;100.00
74524;BME280;63074;44.696;10.358;2024-02-23T09:43:46;98229.81;;;18.51;100.00
74524;BME280;63074;44.696;10.358;2024-02-23T09:46:13;98220.13;;;19.49;100.00
74524;BME280;63074;44.696;10.358;2024-02-23T09:48:44;98215.31;;;18.47;100.00
74524;BME280;63074;44.696;10.358;2024-02-23T09:51:12;98220.31;;;18.16;100.00
74524;BME280;63074;44.696;10.358;2024-02-23T09:53:39;98199.19;;;18.63;100.00
74524;BME280;63074;44.696;10.358;2024-02-23T09:56:08;98210.69;;;19.47;100.00
74524;BME280;63074;44.696;10.358;2024-02-23T09:58:39;98206.66;;;20.38;100.00
74524;BME280;63074;44.696;10.358;2024-02-23T10:01:07;98208.25;;;19.78;100.00
74524;BME280;63074;44.696;10.358;2024-02-23T10:03:37;98224.50;;;19.99;100.00
74524;BME280;63074;44.696;10.358;2024-02-23T10:06:04;98223.69;;;20.35;100.00
74524;BME280;63074;44.696;10.358;2024-02-23T10:08:31;98224.13;;;19.52;100.00
74524;BME280;63074;44.696;10.358;2024-02-23T10:10:57;98224.06;;;20.09;100.00
74524;BME280;63074;44.696;10.358;2024-02-23T10:13:24;98230.41;;;20.01;100.00
74524;BME280;63074;44.696;10.358;2024-02-23T10:15:50;98229.38;;;20.42;100.00
74524;BME280;63074;44.696;10.358;2024-02-23T10:18:17;98225.31;;;18.97;100.00
74524;BME280;63074;44.696;10.358;2024-02-23T10:20:43;98238.91;;;19.63;100.00
74524;BME280;63074;44.696;10.358;2024-02-23T10:23:10;98237.78;;;19.76;100.00
74524;BME280;63074;44.696;10.358;2024-02-23T10:25:36;98229.16;;;19.62;100.00
74524;BME280;63074;44.696;10.358;2024-02-23T10:28:04;98230.97;;;19.25;100.00
74524;BME280;63074;44.696;10.358;2024-02-23T10:30:31;98231.34;;;18.82;100.00
74524;BME280;63074;44.696;10.358;2024-02-23T10:32:57;98238.88;;;18.64;100.00
74524;BME280;63074;44.696;10.358;2024-02-23T10:35:25;98216.59;;;20.99;100.00
74524;BME280;63074;44.696;10.358;2024-02-23T10:37:52;98216.34;;;21.47;100.00
74524;BME280;63074;44.696;10.358;2024-02-23T10:40:20;98214.94;;;21.85;100.00
74524;BME280;63074;44.696;10.358;2024-02-23T10:42:48;98209.81;;;22.15;100.00
74524;BME280;63074;44.696;10.358;2024-02-23T10:45:20;98216.13;;;21.25;100.00
74524;BME280;63074;44.696;10.358;2024-02-23T10:47:51;98216.25;;;21.00;100.00
74524;BME280;63074;44.696;10.358;2024-02-23T10:50:18;98203.81;;;21.03;100.00
74524;BME280;63074;44.696;10.358;2024-02-23T10:52:45;98204.66;;;20.91;100.00
74524;BME280;63074;44.696;10.358;2024-02-23T10:55:15;98209.63;;;21.29;100.00
74524;BME280;63074;44.696;10.358;2024-02-23T10:57:43;98208.06;;;20.60;100.00
74524;BME280;63074;44.696;10.358;2024-02-23T11:00:10;98210.84;;;22.26;100.00
74524;BME280;63074;44.696;10.358;2024-02-23T11:02:46;98202.06;;;21.70;100.00
74524;BME280;63074;44.696;10.358;2024-02-23T11:05:15;98199.88;;;21.75;100.00
74524;BME280;63074;44.696;10.358;2024-02-23T11:07:42;98208.00;;;22.38;100.00
74524;BME280;63074;44.696;10.358;2024-02-23T11:10:08;98216.59;;;20.59;100.00
74524;BME280;63074;44.696;10.358;2024-02-23T11:12:38;98226.31;;;20.44;100.00
74524;BME280;63074;44.696;10.358;2024-02-23T11:15:05;98227.00;;;19.80;100.00
74524;BME280;63074;44.696;10.358;2024-02-23T11:17:33;98235.41;;;19.63;100.00
74524;BME280;63074;44.696;10.358;2024-02-23T11:20:03;98224.94;;;19.52;100.00
74524;BME280;63074;44.696;10.358;2024-02-23T11:22:34;98219.88;;;19.42;100.00
74524;BME280;63074;44.696;10.358;2024-02-23T11:25:09;98225.53;;;19.37;100.00
74524;BME280;63074;44.696;10.358;2024-02-23T11:27:37;98224.81;;;21.74;100.00
74524;BME280;63074;44.696;10.358;2024-02-23T11:30:08;98226.63;;;22.33;100.00
74524;BME280;63074;44.696;10.358;2024-02-23T11:32:43;98220.06;;;20.07;100.00
74524;BME280;63074;44.696;10.358;2024-02-23T11:35:13;98241.06;;;22.14;100.00
74524;BME280;63074;44.696;10.358;2024-02-23T11:37:47;98235.16;;;34.28;76.94
74524;BME280;63074;44.696;10.358;2024-02-23T11:40:14;98234.88;;;34.38;44.19
74524;BME280;63074;44.696;10.358;2024-02-23T11:42:44;98230.66;;;27.07;67.33
74524;BME280;63074;44.696;10.358;2024-02-23T11:45:10;98218.97;;;26.01;76.52
74524;BME280;63074;44.696;10.358;2024-02-23T11:47:39;98216.16;;;26.45;72.12
74524;BME280;63074;44.696;10.358;2024-02-23T11:50:09;98211.38;;;25.43;80.62
74524;BME280;63074;44.696;10.358;2024-02-23T11:52:40;98212.69;;;25.56;76.76
74524;BME280;63074;44.696;10.358;2024-02-23T11:55:07;98205.59;;;25.99;75.55
74524;BME280;63074;44.696;10.358;2024-02-23T11:57:37;98197.25;;;29.35;62.75
74524;BME280;63074;44.696;10.358;2024-02-23T12:00:04;98208.13;;;29.70;57.67
74524;BME280;63074;44.696;10.358;2024-02-23T12:02:34;98198.41;;;28.53;58.29
74524;BME280;63074;44.696;10.358;2024-02-23T12:05:00;98204.38;;;29.32;57.34
74524;BME280;63074;44.696;10.358;2024-02-23T12:07:31;98186.16;;;28.54;57.08
74524;BME280;63074;44.696;10.358;2024-02-23T12:09:58;98187.59;;;29.64;52.44
74524;BME280;63074;44.696;10.358;2024-02-23T12:12:26;98189.00;;;29.28;55.00
74524;BME280;63074;44.696;10.358;2024-02-23T12:14:52;98208.59;;;28.74;55.77
74524;BME280;63074;44.696;10.358;2024-02-23T12:17:19;98189.19;;;28.88;54.90
74524;BME280;63074;44.696;10.358;2024-02-23T12:19:45;98180.50;;;29.60;53.07
74524;BME280;63074;44.696;10.358;2024-02-23T12:22:11;98185.53;;;29.13;53.40
74524;BME280;63074;44.696;10.358;2024-02-23T12:24:41;98195.31;;;28.05;56.77
74524;BME280;63074;44.696;10.358;2024-02-23T12:27:08;98205.56;;;29.42;54.42
74524;BME280;63074;44.696;10.358;2024-02-23T12:29:34;98180.91;;;28.92;53.71
74524;BME280;63074;44.696;10.358;2024-02-23T12:37:50;98175.41;;;29.51;52.20
74524;BME280;63074;44.696;10.358;2024-02-23T12:40:17;98195.59;;;29.48;52.55
74524;BME280;63074;44.696;10.358;2024-02-23T12:42:43;98202.16;;;30.20;50.25
74524;BME280;63074;44.696;10.358;2024-02-23T12:45:10;98213.66;;;29.70;51.34
74524;BME280;63074;44.696;10.358;2024-02-23T12:47:36;98210.41;;;30.27;49.73
74524;BME280;63074;44.696;10.358;2024-02-23T12:50:02;98200.31;;;29.54;52.20
74524;BME280;63074;44.696;10.358;2024-02-23T12:52:28;98191.41;;;29.81;50.69
74524;BME280;63074;44.696;10.358;2024-02-23T12:54:55;98199.03;;;30.14;50.52
74524;BME280;63074;44.696;10.358;2024-02-23T12:57:21;98206.59;;;29.59;50.61
74524;BME280;63074;44.696;10.358;2024-02-23T12:59:47;98210.25;;;30.79;47.67
74524;BME280;63074;44.696;10.358;2024-02-23T13:02:13;98198.78;;;30.39;48.59
74524;BME280;63074;44.696;10.358;2024-02-23T13:04:39;98186.34;;;30.58;48.27
74524;BME280;63074;44.696;10.358;2024-02-23T13:07:06;98193.19;;;28.73;50.91
74524;BME280;63074;44.696;10.358;2024-02-23T13:09:32;98189.56;;;28.98;51.55
74524;BME280;63074;44.696;10.358;2024-02-23T13:11:58;98195.78;;;29.75;50.23
74524;BME280;63074;44.696;10.358;2024-02-23T13:14:25;98173.56;;;29.30;50.93